Flight Track Log - Related Links

Times and Time Zones

All times are in EDT time to prevent confusion due to time zone crossing. See the EJA314 flight status page for this flight to view local times or setup timezone preferences in your user account.

Time Position Orientation Groundspeed Altitude Reporting Facility
EDT Latitude Longitude Course Direction KTS MPH feet Rate Location/Type
Thu 05:53:20 PM 38.4982 -107.8961 90° East 5,900  Level FlightAware ADS-B
Thu 05:57:38 PM 38.4982 -107.8961 180° South 5,900 Level FlightAware ADS-B
Thu 06:05:37 PM 38.4982 -107.8961 270° West 5,900 Level FlightAware ADS-B (KGUC)
Thu 06:08:00 PM 38.7138 -107.9611 347° North  Level FlightAware Approximate
Thu 06:08:17 PM 38.4982 -107.8961 347° North  Level FlightAware ADS-B (KGUC)
Thu 06:10:02 PM 38.4982 -107.8961 270° West 5,900 243 Climbing FlightAware ADS-B (KGUC)
Thu 06:12:47 PM 38.4982 -107.8961 180° South Descending FlightAware ADS-B (KGUC)
Thu 06:15:00 PM 38.6987 -107.9568 347° North  Level FlightAware Approximate
Thu 06:16:00 PM 38.7887 -107.9851 345° North  Level FlightAware Approximate
Thu 06:17:00 PM 38.8766 -108.0216 339° North  Level FlightAware Approximate
Thu 06:18:00 PM 38.9652 -108.0492 339° North  Level FlightAware Approximate
Thu 06:19:00 PM 39.0535 -108.0845 346° North  Level FlightAware Approximate
Thu 06:20:00 PM 39.1431 -108.1144 345° North  Level FlightAware Approximate
Thu 06:21:00 PM 39.2328 -108.1442 346° North  Level FlightAware Approximate
Thu 06:22:00 PM 39.3226 -108.1734 347° North  Level FlightAware Approximate
Thu 06:23:00 PM 39.4128 -108.2005 347° North  Level FlightAware Approximate
Thu 06:24:00 PM 39.5014 -108.2340 339° North  Level FlightAware Approximate
Thu 06:25:00 PM 39.5886 -108.2740 346° North  Level FlightAware Approximate
Thu 06:26:00 PM 39.6785 -108.3029 349° North  Level FlightAware Approximate
Thu 06:27:00 PM 39.7681 -108.3321 341° North  Level FlightAware Approximate
Thu 06:28:00 PM 39.8558 -108.3710 341° North  Level FlightAware Approximate
Thu 06:29:00 PM 39.9448 -108.4037 346° North  Level FlightAware Approximate
Thu 06:33:01 PM 38.5138 -107.8928 360° North 148 170 6,000  Level FlightAware ADS-B
Thu 06:33:26 PM 38.5322 -107.8935 358° North 181 208 7,000 2,400 Climbing FlightAware ADS-B
Thu 06:33:46 PM 38.5511 -107.8943 358° North 226 260 7,800 3,000 Climbing FlightAware ADS-B
Thu 06:34:26 PM 38.5969 -107.9078 347° North 268 308 10,000 3,857 Climbing FlightAware ADS-B
Thu 06:34:56 PM 38.6329 -107.9201 345° North 273 314 12,300 4,102 Climbing FlightAware ADS-B
Thu 06:36:04 PM 38.7182 -107.9544 343° North 294 338 16,700 3,505 Climbing FlightAware ADS-B
Thu 06:36:37 PM 38.7613 -107.9721 342° North 315 362 18,200 3,143 Climbing FlightAware ADS-B
Thu 06:37:07 PM 38.8039 -107.9893 343° North 320 368 20,000 2,952 Climbing FlightAware ADS-B
Thu 06:37:40 PM 38.8515 -108.0086 343° North 338 389 21,300 2,667 Climbing FlightAware ADS-B
Thu 06:38:10 PM 38.8965 -108.0266 343° North 341 392 22,800 2,571 Climbing FlightAware ADS-B
Thu 06:38:43 PM 38.9474 -108.0473 342° North 356 410 24,000 2,286 Climbing FlightAware ADS-B
Thu 06:39:13 PM 38.9953 -108.0667 343° North 362 417 25,200 1,905 Climbing FlightAware ADS-B
Thu 06:39:46 PM 39.0491 -108.0887 342° North 385 443 26,000 1,784 Climbing FlightAware ADS-B
Thu 06:40:27 PM 39.1215 -108.1182 342° North 394 453 27,400 2,500 Climbing FlightAware ADS-B
Thu 06:40:58 PM 39.1749 -108.1399 342° North 386 444 29,000 2,344 Climbing FlightAware ADS-B
Thu 06:41:31 PM 39.2329 -108.1636 342° North 401 461 29,900 1,810 Climbing FlightAware ADS-B
Thu 06:42:01 PM 39.2858 -108.1852 342° North 406 467 30,900 2,066 Climbing FlightAware ADS-B
Thu 06:42:32 PM 39.3414 -108.2081 342° North 408 470 32,000 2,323 Climbing FlightAware ADS-B
Thu 06:43:03 PM 39.3970 -108.2310 342° North 402 463 33,300 2,381 Climbing FlightAware ADS-B
Thu 06:43:35 PM 39.4533 -108.2542 342° North 394 453 34,500 2,129 Climbing FlightAware ADS-B
Thu 06:44:05 PM 39.5048 -108.2755 342° North 387 445 35,500 1,406 Climbing FlightAware ADS-B
Thu 06:44:39 PM 39.5631 -108.2996 342° North 399 459 36,000 448 Climbing FlightAware ADS-B
Thu 06:45:12 PM 39.6232 -108.3246 342° North 422 486 36,000  Level FlightAware ADS-B
Thu 06:45:42 PM 39.6804 -108.3483 342° North 439 505 36,000  Level FlightAware ADS-B
Thu 06:46:12 PM 39.7392 -108.3728 342° North 453 521 36,000  Level FlightAware ADS-B
Thu 06:46:44 PM 39.8041 -108.3997 342° North 462 532 36,000  Level FlightAware ADS-B
Thu 06:47:18 PM 39.8756 -108.4295 342° North 472 543 36,000  Level FlightAware ADS-B
Thu 06:47:48 PM 39.9369 -108.4552 342° North 476 548 36,000  Level FlightAware ADS-B
Thu 06:48:21 PM 40.0054 -108.4838 342° North 475 547 36,000  Level FlightAware ADS-B
Thu 06:48:51 PM 40.0683 -108.5102 342° North 473 544 36,000  Level FlightAware ADS-B
Thu 06:49:21 PM 40.1309 -108.5365 342° North 472 543 36,000  Level FlightAware ADS-B
Thu 06:49:53 PM 40.1968 -108.5642 342° North 472 543 36,000  Level FlightAware ADS-B
Thu 06:50:23 PM 40.2611 -108.5914 342° North 470 541 36,000  Level FlightAware ADS-B
Thu 06:50:57 PM 40.3296 -108.6204 342° North 470 541 36,000  Level FlightAware ADS-B
Thu 06:51:31 PM 40.4001 -108.6503 342° North 469 540 36,000  Level FlightAware ADS-B
Thu 06:52:02 PM 40.4643 -108.6776 342° North 469 540 36,000  Level FlightAware ADS-B
Thu 06:52:34 PM 40.5303 -108.7057 342° North 470 541 36,000  Level FlightAware ADS-B
Thu 06:53:05 PM 40.5942 -108.7331 342° North 469 540 36,000  Level FlightAware ADS-B
Thu 06:53:37 PM 40.6621 -108.7621 342° North 469 540 36,000  Level FlightAware ADS-B
Thu 06:54:16 PM 40.7386 -108.7964 342° North 468 539 36,000  Level Denver Center
Thu 06:55:18 PM 40.8569 -108.8464 342° North 467 537 36,000  Level Denver Center
Thu 06:56:06 PM 40.9558 -108.8894 342° North 467 537 36,000  Level Salt Lake Center
Thu 06:57:07 PM 41.0736 -108.9400 342° North 467 537 36,000  Level Salt Lake Center
Thu 06:58:09 PM 41.2094 -108.9983 342° North 462 532 36,000  Level Salt Lake Center
Thu 06:59:11 PM 41.3247 -109.0481 342° North 458 527 36,000  Level Salt Lake Center
Thu 07:00:13 PM 41.4592 -109.1106 341° North 461 531 36,000  Level Salt Lake Center
Thu 07:01:14 PM 41.5897 -109.1661 342° North 465 535 36,000  Level Salt Lake Center
Thu 07:02:16 PM 41.7081 -109.2183 342° North 467 537 36,000  Level Salt Lake Center
Thu 07:03:18 PM 41.8456 -109.2800 342° North 467 537 36,000  Level Salt Lake Center
Thu 07:04:20 PM 41.9636 -109.3325 342° North 467 537 36,000  Level Salt Lake Center
Thu 07:05:21 PM 42.0828 -109.3861 342° North 469 540 36,000  Level Salt Lake Center
Thu 07:06:23 PM 42.2214 -109.4497 341° North 471 542 36,000  Level Salt Lake Center
Thu 07:07:25 PM 42.3403 -109.5042 341° North 471 542 36,000  Level Salt Lake Center
Thu 07:08:27 PM 42.4789 -109.5667 342° North 472 543 36,000  Level Salt Lake Center
Thu 07:09:29 PM 42.5975 -109.6211 341° North 471 542 36,000  Level Salt Lake Center
Thu 07:10:30 PM 42.7364 -109.6844 341° North 472 543 36,000  Level Salt Lake Center
Thu 07:11:32 PM 42.8539 -109.7367 342° North 466 536 36,000  Level Salt Lake Center
Thu 07:12:34 PM 42.9683 -109.7911 341° North 457 526 36,000  Level Salt Lake Center
Thu 07:13:36 PM 43.0936 -109.8486 341° North 458 527 36,000  Level Salt Lake Center
Thu 07:14:37 PM 43.2297 -109.9122 341° North 458 527 36,000  Level Salt Lake Center
Thu 07:15:39 PM 43.3553 -109.9667 343° North 460 529 36,000  Level Salt Lake Center
Thu 07:16:41 PM 43.4706 -110.0236 340° North 460 529 36,000  Level Salt Lake Center
Thu 07:17:43 PM 43.5975 -110.0836 341° North 459 528 36,000  Level Salt Lake Center
Thu 07:18:44 PM 43.7325 -110.1439 342° North 458 527 36,000  Level Salt Lake Center
Thu 07:19:46 PM 43.8464 -110.2003 340° North 456 525 36,000 -242 Level Salt Lake Center
Thu 07:20:48 PM 43.9622 -110.2553 341° North 459 528 35,500 -1,065 Descending Salt Lake Center
Thu 07:21:50 PM 44.0950 -110.3206 341° North 454 522 33,800 -1,500 Descending Salt Lake Center
Thu 07:22:52 PM 44.2117 -110.3744 342° North 460 529 32,400 -1,463 Descending Salt Lake Center
Thu 07:23:53 PM 44.3444 -110.4383 341° North 454 522 30,800 -1,171 Descending Salt Lake Center
Thu 07:24:55 PM 44.4622 -110.4956 341° North 469 540 30,000 -387 Descending Salt Lake Center
Thu 07:25:57 PM 44.5961 -110.5619 341° North 460 529 30,000  Level Salt Lake Center
Thu 07:26:59 PM 44.7106 -110.6183 341° North 458 527 30,000 -532 Level Salt Lake Center
Thu 07:28:01 PM 44.8464 -110.6844 341° North 461 531 28,900 -1,756 Descending Salt Lake Center
Thu 07:29:02 PM 44.9547 -110.7381 341° North 437 503 26,400 -2,878 Descending Salt Lake Center
Thu 07:30:04 PM 45.0800 -110.8003 341° North 429 494 23,000 -3,194 Descending Salt Lake Center
Thu 07:31:06 PM 45.1964 -110.8578 341° North 423 487 19,800 -3,097 Descending Salt Lake Center
Thu 07:32:08 PM 45.3047 -110.9097 341° North 407 468 16,600 -2,903 Descending Salt Lake Center
Thu 07:33:10 PM 45.4083 -110.9639 340° North 389 448 13,800 -1,756 Descending Salt Lake Center
Thu 07:34:11 PM 45.4958 -111.0183 336° Northwest 334 384 13,000 -683 Descending Salt Lake Center
Thu 07:35:13 PM 45.5678 -111.0831 328° Northwest 302 348 12,400 -968 Descending Salt Lake Center
Thu 07:36:15 PM 45.6392 -111.1483 327° Northwest 300 345 11,000 -1,790 Descending Salt Lake Center
Thu 07:37:17 PM 45.7008 -111.2044 328° Northwest 255 293 8,700 -2,304 Descending Salt Lake Center
Thu 07:38:20 PM 45.7525 -111.2500 328° Northwest 206 237 6,200 -1,355 Descending Salt Lake Center
Thu 07:39:21 PM 45.7961 -111.2628 348° North 160 184 5,900 -341 Descending Salt Lake Center
Thu 07:40:23 PM 45.8150 -111.2144 61° Northeast 147 169 5,500 -683 Descending Salt Lake Center
Thu 07:41:24 PM 45.7917 -111.1719 128° Southeast 128 147 4,500 -984 Descending Salt Lake Center

Login

Don't have an account? Register now (free) for customized features, flight alerts, and more!